createdAt,value
2023-05-20T00:06:40.195Z,11.58
2023-05-20T00:16:44.264Z,11.56
2023-05-20T00:26:46.961Z,11.56
2023-05-20T00:36:49.522Z,11.55
2023-05-20T00:46:52.382Z,11.50
2023-05-20T00:56:55.290Z,11.47
2023-05-20T01:06:58.236Z,11.45
2023-05-20T01:17:02.799Z,11.42
2023-05-20T01:27:05.729Z,11.40
2023-05-20T01:37:08.840Z,11.36
2023-05-20T01:47:11.318Z,11.33
2023-05-20T01:57:13.801Z,11.30
2023-05-20T02:07:16.971Z,11.28
2023-05-20T02:17:19.607Z,11.27
2023-05-20T02:27:22.069Z,11.28
2023-05-20T02:37:24.579Z,11.26
2023-05-20T02:47:27.660Z,11.25
2023-05-20T02:57:30.059Z,11.22
2023-05-20T03:07:34.925Z,11.18
2023-05-20T03:17:37.277Z,11.18
2023-05-20T03:27:39.965Z,11.15
2023-05-20T03:37:42.685Z,11.14
2023-05-20T03:47:45.179Z,11.10
2023-05-20T03:57:47.560Z,11.10
2023-05-20T04:07:50.234Z,11.13
2023-05-20T04:17:52.767Z,11.13
2023-05-20T04:27:55.213Z,11.16
2023-05-20T04:37:57.816Z,11.23
2023-05-20T04:48:00.748Z,11.33
2023-05-20T04:58:04.289Z,11.52
2023-05-20T05:08:07.465Z,11.66
2023-05-20T05:18:10.167Z,11.77
2023-05-20T05:28:13.004Z,11.84
2023-05-20T05:38:16.393Z,11.91
2023-05-20T05:48:19.093Z,11.96
2023-05-20T05:58:21.656Z,12.06
2023-05-20T06:08:24.238Z,12.22
2023-05-20T06:18:27.359Z,12.32
2023-05-20T06:28:30.710Z,12.32
2023-05-20T06:38:33.527Z,12.50
2023-05-20T06:48:38.047Z,12.83
2023-05-20T06:58:41.166Z,13.03
2023-05-20T07:08:43.570Z,13.39
2023-05-20T07:18:46.405Z,13.85
2023-05-20T07:28:49.858Z,14.21
2023-05-20T07:39:02.659Z,14.40
2023-05-20T07:49:08.607Z,14.22
2023-05-20T07:59:11.509Z,14.10
2023-05-20T08:09:14.636Z,14.02
2023-05-20T08:19:17.813Z,14.19
2023-05-20T08:29:20.712Z,14.37
2023-05-20T08:39:23.375Z,14.44
2023-05-20T08:49:26.556Z,14.79
2023-05-20T08:59:33.547Z,15.16
2023-05-20T09:09:36.241Z,15.66
2023-05-20T09:19:39.518Z,15.92
2023-05-20T09:29:44.190Z,16.25
2023-05-20T09:40:00.205Z,16.74
2023-05-20T09:50:04.809Z,17.35
2023-05-20T10:00:09.660Z,18.24
2023-05-20T10:10:26.830Z,19.03
2023-05-20T10:20:31.288Z,19.02
2023-05-20T10:30:34.794Z,19.10
2023-05-20T10:40:41.467Z,19.40
2023-05-20T10:50:45.390Z,19.41
2023-05-20T11:00:53.378Z,20.46
2023-05-20T11:11:02.615Z,21.50
2023-05-20T11:21:05.925Z,22.39
2023-05-20T11:31:09.539Z,22.33
2023-05-20T11:41:13.481Z,21.66
2023-05-20T11:51:16.455Z,20.65
2023-05-20T12:01:22.268Z,22.18
2023-05-20T12:11:26.351Z,22.52
2023-05-20T12:21:33.998Z,22.52
2023-05-20T12:31:38.513Z,22.68
2023-05-20T12:41:44.370Z,22.20
2023-05-20T12:51:48.109Z,21.81
2023-05-20T13:02:01.363Z,21.86
2023-05-20T13:12:06.603Z,21.32
2023-05-20T13:22:10.239Z,21.05
2023-05-20T13:32:13.421Z,20.98
2023-05-20T13:42:18.725Z,21.56
2023-05-20T13:52:32.616Z,21.38
2023-05-20T14:02:34.954Z,21.06
2023-05-20T14:12:38.209Z,20.60
2023-05-20T14:22:41.842Z,20.26
2023-05-20T14:32:46.041Z,20.03
2023-05-20T14:42:50.231Z,19.76
2023-05-20T14:52:53.649Z,19.40
2023-05-20T15:02:58.058Z,19.36
2023-05-20T15:13:01.447Z,19.68
2023-05-20T15:23:07.252Z,19.90
2023-05-20T15:33:16.525Z,20.08
2023-05-20T15:43:20.799Z,20.18
2023-05-20T15:53:24.605Z,20.18
2023-05-20T16:03:30.087Z,20.10
2023-05-20T16:13:34.431Z,19.88
2023-05-20T16:23:38.329Z,19.45
2023-05-20T16:33:42.147Z,18.94
2023-05-20T16:43:45.517Z,18.65
2023-05-20T16:53:48.773Z,18.45
2023-05-20T17:03:52.250Z,18.25
2023-05-20T17:13:55.559Z,18.08
2023-05-20T17:23:59.641Z,18.07
2023-05-20T17:34:03.098Z,17.91
2023-05-20T17:44:06.582Z,17.79
2023-05-20T17:54:09.656Z,17.66
2023-05-20T18:04:12.392Z,17.38
2023-05-20T18:14:15.637Z,17.10
2023-05-20T18:24:20.038Z,16.85
2023-05-20T18:34:23.071Z,16.61
2023-05-20T18:44:26.296Z,16.34
2023-05-20T18:54:29.373Z,16.02
2023-05-20T19:04:32.169Z,15.72
2023-05-20T19:14:35.317Z,15.48
2023-05-20T19:24:38.486Z,15.30
2023-05-20T19:34:41.600Z,15.08
2023-05-20T19:44:47.251Z,14.85
2023-05-20T19:54:49.854Z,14.62
2023-05-20T20:04:52.701Z,14.38
2023-05-20T20:14:55.353Z,14.12
2023-05-20T20:24:58.079Z,13.92
2023-05-20T20:35:01.148Z,13.78
2023-05-20T20:45:04.850Z,13.62
2023-05-20T20:55:07.584Z,13.46
2023-05-20T21:05:10.917Z,13.32
2023-05-20T21:15:15.399Z,13.16
2023-05-20T21:25:18.314Z,13.04
2023-05-20T21:35:21.169Z,13.05
2023-05-20T21:45:23.576Z,13.09
2023-05-20T21:55:26.296Z,12.95
2023-05-20T22:05:29.218Z,12.87
2023-05-20T22:15:32.601Z,12.85
2023-05-20T22:25:37.110Z,12.77
2023-05-20T22:35:39.810Z,12.67
2023-05-20T22:45:42.401Z,12.58
2023-05-20T22:55:45.066Z,12.53
2023-05-20T23:05:48.325Z,12.49
2023-05-20T23:15:51.554Z,12.53
2023-05-20T23:25:54.101Z,12.59
2023-05-20T23:35:56.771Z,12.63
2023-05-20T23:45:59.170Z,12.67
2023-05-20T23:56:02.098Z,12.70
